Time;durP1;ratioP1;P1;durP2;ratioP2;P2;SDS_P1;SDS_P2;PMS_P1;PMS_P2;Temp;Humidity;BMP_temperature;BMP_pressure;BME280_temperature;BME280_humidity;BME280_pressure;Samples;Min_cycle;Max_cycle;Signal;HPM_P1;HPM_P2
2021/01/14 00:00:46;;;;;;;5.43;1.70;;;7.30;99.90;;;;;;4994758;28;20304;-81
2021/01/14 00:03:13;;;;;;;5.45;1.50;;;7.20;99.90;;;;;;4994508;28;20221;-82
2021/01/14 00:05:40;;;;;;;5.43;1.80;;;7.10;99.90;;;;;;4994623;28;20201;-81
2021/01/14 00:08:07;;;;;;;9.07;1.70;;;7.10;99.90;;;;;;4994569;28;20193;-83
2021/01/14 00:10:36;;;;;;;4.63;1.70;;;7.10;99.90;;;;;;4994563;28;20204;-83
2021/01/14 00:13:02;;;;;;;5.30;1.63;;;7.20;99.90;;;;;;4994546;28;20196;-83
2021/01/14 00:15:29;;;;;;;3.30;1.40;;;7.20;99.90;;;;;;4994386;28;20197;-82
2021/01/14 00:17:56;;;;;;;3.03;1.45;;;7.20;99.90;;;;;;4994379;28;20232;-82
2021/01/14 00:20:22;;;;;;;6.93;2.00;;;7.30;99.90;;;;;;4994531;28;20209;-83
2021/01/14 00:22:48;;;;;;;5.30;1.52;;;7.30;99.90;;;;;;4994650;28;20201;-80
2021/01/14 00:25:18;;;;;;;4.88;1.80;;;7.50;99.90;;;;;;4994226;28;20193;-82
2021/01/14 00:27:45;;;;;;;2.33;1.63;;;7.50;99.90;;;;;;4994379;28;20228;-80
2021/01/14 00:30:14;;;;;;;6.65;1.50;;;7.40;99.90;;;;;;4993544;28;20201;-83
2021/01/14 00:32:42;;;;;;;2.38;1.33;;;7.40;99.90;;;;;;4994350;28;20228;-83
2021/01/14 00:35:09;;;;;;;4.00;1.88;;;7.30;99.90;;;;;;4994023;28;20205;-82
2021/01/14 00:37:51;;;;;;;4.07;1.90;;;7.30;99.90;;;;;;4993970;28;20231;-83
2021/01/14 00:40:19;;;;;;;7.25;1.67;;;7.30;99.90;;;;;;4994341;28;20625;-83
2021/01/14 00:42:46;;;;;;;8.43;2.38;;;7.30;99.90;;;;;;4994047;28;20600;-82
2021/01/14 00:45:13;;;;;;;7.55;1.85;;;7.30;99.90;;;;;;4993880;28;20279;-83
2021/01/14 00:47:39;;;;;;;2.10;1.60;;;7.30;99.90;;;;;;4993984;28;20284;-83
2021/01/14 00:50:08;;;;;;;2.63;1.90;;;7.40;99.90;;;;;;4993988;28;20204;-83
2021/01/14 00:52:34;;;;;;;3.95;1.48;;;7.30;99.90;;;;;;4994163;28;20207;-83
2021/01/14 00:55:00;;;;;;;7.10;2.75;;;7.30;99.90;;;;;;4994006;28;20193;-82
2021/01/14 00:57:27;;;;;;;10.75;2.08;;;7.20;99.90;;;;;;4993762;28;20232;-82
2021/01/14 00:59:53;;;;;;;5.43;1.88;;;7.20;99.90;;;;;;4993847;28;20686;-83
2021/01/14 01:02:20;;;;;;;5.82;1.67;;;7.10;99.90;;;;;;4993827;28;20204;-82
2021/01/14 01:04:46;;;;;;;5.75;1.30;;;7.10;99.90;;;;;;4993880;28;20200;-82
2021/01/14 01:07:13;;;;;;;6.35;1.38;;;7.10;99.90;;;;;;4993871;28;20201;-83
2021/01/14 01:09:39;;;;;;;7.00;2.10;;;7.10;99.90;;;;;;4993753;28;20201;-82
2021/01/14 01:12:07;;;;;;;9.57;1.73;;;7.10;99.90;;;;;;4994034;28;20208;-82
2021/01/14 01:14:33;;;;;;;3.60;1.23;;;7.10;99.90;;;;;;4993868;28;20263;-82
2021/01/14 01:16:59;;;;;;;3.58;1.55;;;7.10;99.90;;;;;;4993891;28;20232;-80
2021/01/14 01:19:25;;;;;;;6.88;1.60;;;7.00;99.90;;;;;;4993779;28;20193;-83
2021/01/14 01:21:52;;;;;;;5.60;2.00;;;7.00;99.90;;;;;;4993689;28;20223;-83
2021/01/14 01:24:19;;;;;;;5.63;2.15;;;7.10;99.90;;;;;;4993771;28;20197;-80
2021/01/14 01:26:51;;;;;;;2.85;1.50;;;7.00;99.90;;;;;;4993834;28;20201;-82
2021/01/14 01:29:18;;;;;;;4.95;2.65;;;7.00;99.90;;;;;;4993883;28;20208;-82
2021/01/14 01:31:44;;;;;;;5.00;1.98;;;7.00;99.90;;;;;;4993838;28;20201;-83
2021/01/14 01:34:10;;;;;;;3.05;1.10;;;7.00;99.90;;;;;;4993507;28;20221;-83
2021/01/14 01:36:37;;;;;;;3.53;1.38;;;7.00;99.90;;;;;;4993398;28;20235;-82
2021/01/14 01:39:03;;;;;;;1.88;1.17;;;7.00;99.90;;;;;;4993452;28;20208;-79
2021/01/14 01:41:31;;;;;;;2.20;1.63;;;7.00;99.90;;;;;;4995552;28;20205;-82
2021/01/14 01:43:57;;;;;;;2.92;1.77;;;6.90;99.90;;;;;;4997254;28;20200;-82
2021/01/14 01:46:25;;;;;;;10.43;1.70;;;6.90;99.90;;;;;;4997068;28;20224;-82
2021/01/14 01:48:52;;;;;;;3.15;1.52;;;7.00;99.90;;;;;;4997095;28;20197;-83
2021/01/14 01:51:20;;;;;;;4.25;1.30;;;6.90;99.90;;;;;;4997215;28;20207;-82
2021/01/14 01:53:46;;;;;;;1.95;1.20;;;6.90;99.90;;;;;;4996997;28;20193;-82
2021/01/14 01:56:15;;;;;;;3.90;1.60;;;6.90;99.90;;;;;;4997125;28;20232;-82
2021/01/14 01:58:42;;;;;;;2.88;1.63;;;6.90;99.90;;;;;;4996912;28;20197;-83
2021/01/14 02:01:09;;;;;;;8.85;1.70;;;6.90;99.90;;;;;;4996958;28;20205;-80
2021/01/14 02:03:35;;;;;;;2.28;1.30;;;6.90;99.90;;;;;;4996605;28;20700;-82
2021/01/14 02:06:02;;;;;;;4.20;1.55;;;6.80;99.90;;;;;;4996765;28;20217;-83
2021/01/14 02:08:36;;;;;;;4.68;1.75;;;6.70;99.90;;;;;;4996977;28;20201;-82
2021/01/14 02:11:08;;;;;;;5.30;1.20;;;6.70;99.90;;;;;;4996755;28;20203;-83
2021/01/14 02:13:41;;;;;;;4.65;2.00;;;6.70;99.90;;;;;;4996783;28;20205;-83
2021/01/14 02:16:10;;;;;;;11.45;1.75;;;6.80;99.90;;;;;;4996758;28;20758;-82
2021/01/14 02:18:36;;;;;;;4.75;1.80;;;6.80;99.90;;;;;;4996976;28;20564;-83
2021/01/14 02:21:06;;;;;;;10.60;1.98;;;6.90;99.90;;;;;;4996697;28;20564;-82
2021/01/14 02:23:41;;;;;;;5.53;1.35;;;6.80;99.90;;;;;;4996731;28;20618;-83
2021/01/14 02:26:15;;;;;;;5.03;2.20;;;6.80;99.90;;;;;;4996681;28;20201;-83
2021/01/14 02:28:44;;;;;;;4.07;2.28;;;6.90;99.90;;;;;;4996365;28;20211;-82
2021/01/14 02:31:10;;;;;;;4.70;1.52;;;6.90;99.90;;;;;;4996387;28;20204;-83
2021/01/14 02:33:37;;;;;;;9.07;1.73;;;6.90;99.90;;;;;;4996340;28;20217;-82
2021/01/14 02:36:04;;;;;;;5.07;1.85;;;6.90;99.90;;;;;;4996429;28;20197;-83
2021/01/14 02:38:31;;;;;;;2.58;1.60;;;6.80;99.90;;;;;;4996218;28;20193;-82
2021/01/14 02:40:57;;;;;;;3.65;1.42;;;6.80;99.90;;;;;;4996758;28;20193;-82
2021/01/14 02:43:24;;;;;;;5.05;1.40;;;6.90;99.90;;;;;;4996272;28;20602;-82
2021/01/14 02:45:51;;;;;;;3.00;1.80;;;6.90;99.90;;;;;;4995956;28;20224;-82
2021/01/14 02:48:20;;;;;;;3.75;1.58;;;6.90;99.90;;;;;;4996058;28;20204;-83
2021/01/14 02:50:49;;;;;;;6.32;1.58;;;6.90;99.90;;;;;;4996122;28;20193;-83
2021/01/14 02:53:16;;;;;;;8.15;2.22;;;6.90;99.90;;;;;;4995355;28;20197;-83
2021/01/14 02:55:43;;;;;;;4.00;1.40;;;6.90;99.90;;;;;;4995915;28;20553;-82
2021/01/14 02:58:10;;;;;;;4.72;1.35;;;6.90;99.90;;;;;;4995418;28;20244;-82
2021/01/14 03:00:37;;;;;;;5.50;1.60;;;6.90;99.90;;;;;;4995865;28;20196;-81
2021/01/14 03:03:03;;;;;;;2.13;1.50;;;6.80;99.90;;;;;;4995859;28;20217;-81
2021/01/14 03:05:29;;;;;;;9.80;2.10;;;6.80;99.90;;;;;;4995714;28;20273;-82
2021/01/14 03:07:56;;;;;;;5.28;1.55;;;6.80;99.90;;;;;;4995658;28;20193;-79
2021/01/14 03:10:22;;;;;;;5.40;1.80;;;6.80;99.90;;;;;;4995742;28;20204;-82
2021/01/14 03:12:48;;;;;;;5.80;1.52;;;6.80;99.90;;;;;;4995733;28;20204;-83
2021/01/14 03:15:15;;;;;;;12.27;1.83;;;6.70;99.90;;;;;;4995846;28;20205;-82
2021/01/14 03:17:42;;;;;;;6.80;1.60;;;6.70;99.90;;;;;;4995322;28;20227;-82
2021/01/14 03:20:09;;;;;;;4.28;1.85;;;6.70;99.90;;;;;;4995715;28;20199;-83
2021/01/14 03:22:39;;;;;;;5.53;1.83;;;6.60;99.90;;;;;;4995886;28;20661;-83
2021/01/14 03:25:07;;;;;;;8.25;1.40;;;6.60;99.90;;;;;;4995756;28;20205;-80
2021/01/14 03:27:37;;;;;;;9.02;2.55;;;6.70;99.90;;;;;;4995395;28;20244;-83
2021/01/14 03:30:05;;;;;;;16.13;2.70;;;6.70;99.90;;;;;;4995479;28;20255;-82
2021/01/14 03:32:31;;;;;;;4.00;1.52;;;6.70;99.90;;;;;;4995195;28;20213;-81
2021/01/14 03:34:58;;;;;;;3.60;1.48;;;6.70;99.90;;;;;;4995312;28;20201;-82
2021/01/14 03:37:25;;;;;;;4.25;1.77;;;6.70;99.90;;;;;;4995185;28;20224;-83
2021/01/14 03:39:51;;;;;;;4.10;1.85;;;6.70;99.90;;;;;;4995193;28;20201;-83
2021/01/14 03:42:19;;;;;;;2.58;1.50;;;6.70;99.90;;;;;;4995181;28;20288;-83
2021/01/14 03:44:46;;;;;;;2.25;1.35;;;6.80;99.90;;;;;;4995045;28;20248;-83
2021/01/14 03:47:12;;;;;;;8.20;2.08;;;6.70;99.90;;;;;;4994857;28;20208;-82
2021/01/14 03:49:38;;;;;;;7.10;1.63;;;6.70;99.90;;;;;;4995104;28;20244;-82
2021/01/14 03:52:05;;;;;;;11.23;1.80;;;6.70;99.90;;;;;;4995003;28;20675;-82
2021/01/14 03:54:32;;;;;;;3.92;1.60;;;6.60;99.90;;;;;;4994755;28;20201;-82
2021/01/14 03:56:58;;;;;;;3.78;1.55;;;6.60;99.90;;;;;;4994583;28;20703;-82
2021/01/14 03:59:24;;;;;;;4.65;1.10;;;6.60;99.90;;;;;;4994742;28;20223;-80
2021/01/14 04:01:50;;;;;;;4.28;1.80;;;6.70;99.90;;;;;;4994574;28;20255;-83
2021/01/14 04:04:16;;;;;;;5.25;1.92;;;6.70;99.90;;;;;;4993757;28;20200;-80
2021/01/14 04:06:43;;;;;;;5.40;1.60;;;6.60;99.90;;;;;;4994423;28;20197;-79
2021/01/14 04:09:10;;;;;;;8.15;1.67;;;6.60;99.90;;;;;;4994397;28;20657;-80
2021/01/14 04:11:36;;;;;;;7.30;2.17;;;6.60;99.90;;;;;;4994644;28;20243;-82
2021/01/14 04:14:02;;;;;;;3.20;1.30;;;6.70;99.90;;;;;;4994566;28;20208;-82
2021/01/14 04:16:29;;;;;;;3.92;1.38;;;6.80;99.90;;;;;;4994589;28;20757;-81
2021/01/14 04:18:56;;;;;;;5.47;2.05;;;6.70;99.90;;;;;;4994312;28;20239;-83
2021/01/14 04:21:22;;;;;;;5.45;1.52;;;6.80;99.90;;;;;;4994663;28;20228;-82
2021/01/14 04:23:49;;;;;;;7.68;1.55;;;6.70;99.90;;;;;;4994468;28;20223;-83
2021/01/14 04:26:17;;;;;;;5.72;2.22;;;6.80;99.90;;;;;;4994322;28;20197;-82
2021/01/14 04:28:43;;;;;;;6.88;1.75;;;6.80;99.90;;;;;;4994279;28;20543;-79
2021/01/14 04:31:13;;;;;;;4.57;1.83;;;6.80;99.90;;;;;;4994194;28;20197;-79
2021/01/14 04:33:39;;;;;;;3.00;1.67;;;6.80;99.90;;;;;;4994213;28;20216;-82
2021/01/14 04:36:06;;;;;;;4.50;1.23;;;6.80;99.90;;;;;;4994098;28;20205;-82
2021/01/14 04:38:32;;;;;;;5.80;1.77;;;6.80;99.90;;;;;;4994098;28;20201;-81
2021/01/14 04:41:01;;;;;;;6.05;2.17;;;6.80;99.90;;;;;;4994222;28;20288;-83
2021/01/14 04:43:29;;;;;;;5.68;1.80;;;6.80;99.90;;;;;;4994156;28;20201;-83
2021/01/14 04:46:03;;;;;;;4.70;1.48;;;6.70;99.90;;;;;;4993863;28;20278;-80
2021/01/14 04:48:30;;;;;;;5.13;1.67;;;6.70;99.90;;;;;;4994005;28;20200;-82
2021/01/14 04:51:04;;;;;;;2.53;1.50;;;6.70;99.90;;;;;;4994024;28;20220;-81
2021/01/14 04:53:33;;;;;;;2.95;1.90;;;6.60;99.90;;;;;;4993980;28;20562;-82
2021/01/14 04:56:02;;;;;;;5.97;1.77;;;6.70;99.90;;;;;;4993966;28;20197;-82
2021/01/14 04:58:29;;;;;;;3.42;1.65;;;6.60;99.90;;;;;;4994007;28;20197;-80
2021/01/14 05:00:58;;;;;;;3.60;1.65;;;6.70;99.90;;;;;;4994030;28;20219;-83
2021/01/14 05:03:26;;;;;;;6.10;1.92;;;6.70;99.90;;;;;;4993945;28;20275;-81
2021/01/14 05:05:53;;;;;;;4.35;1.75;;;6.70;99.90;;;;;;4993968;28;20204;-82
2021/01/14 05:08:26;;;;;;;8.25;2.15;;;6.70;99.90;;;;;;4993943;28;20205;-83
2021/01/14 05:10:53;;;;;;;3.20;1.33;;;6.70;99.90;;;;;;4994074;28;20560;-82
2021/01/14 05:13:20;;;;;;;7.00;3.78;;;6.70;99.90;;;;;;4993671;28;20197;-82
2021/01/14 05:15:47;;;;;;;9.13;2.78;;;6.70;99.90;;;;;;4994847;28;20633;-83
2021/01/14 05:18:14;;;;;;;5.82;2.75;;;6.70;99.90;;;;;;4997621;28;20232;-82
2021/01/14 05:20:40;;;;;;;6.57;2.25;;;6.70;99.90;;;;;;4997638;28;20256;-82
2021/01/14 05:23:07;;;;;;;4.90;1.60;;;6.70;99.90;;;;;;4998078;28;20610;-81
2021/01/14 05:25:34;;;;;;;3.40;1.60;;;6.70;99.90;;;;;;4997460;28;20201;-82
2021/01/14 05:28:11;;;;;;;5.40;1.98;;;6.70;99.90;;;;;;4997496;28;20197;-82
2021/01/14 05:30:38;;;;;;;3.75;2.08;;;6.70;99.90;;;;;;4997758;28;20204;-81
2021/01/14 05:33:12;;;;;;;6.90;1.90;;;6.70;99.90;;;;;;4997501;28;20240;-82
2021/01/14 05:35:47;;;;;;;4.82;1.70;;;6.80;99.90;;;;;;4997461;28;20645;-83
2021/01/14 05:38:21;;;;;;;7.45;1.52;;;6.80;99.90;;;;;;4997425;28;20290;-83
2021/01/14 05:41:10;;;;;;;5.50;1.85;;;6.80;99.90;;;;;;4997357;28;20197;-83
2021/01/14 05:43:47;;;;;;;4.90;2.05;;;6.80;99.90;;;;;;4997296;28;20201;-82
2021/01/14 05:46:15;;;;;;;5.47;1.92;;;6.80;99.90;;;;;;4996920;28;20279;-82
2021/01/14 05:48:43;;;;;;;4.93;1.70;;;6.70;99.90;;;;;;4997244;28;20200;-82
2021/01/14 05:51:17;;;;;;;4.00;2.15;;;6.70;99.90;;;;;;4997306;28;20196;-82
2021/01/14 05:53:57;;;;;;;5.38;1.90;;;6.60;99.90;;;;;;4997046;28;20197;-83
2021/01/14 05:56:33;;;;;;;4.85;1.98;;;6.70;99.90;;;;;;4997028;28;20208;-83
2021/01/14 05:59:00;;;;;;;4.72;2.13;;;6.70;99.90;;;;;;4996932;28;20644;-82
2021/01/14 06:01:26;;;;;;;3.50;2.15;;;6.70;99.90;;;;;;4996970;28;20252;-82
2021/01/14 06:03:53;;;;;;;7.97;2.13;;;6.70;99.90;;;;;;4996797;28;20224;-83
2021/01/14 06:06:20;;;;;;;4.53;2.00;;;6.70;99.90;;;;;;4996917;28;20200;-83
2021/01/14 06:08:47;;;;;;;9.10;2.17;;;6.60;99.90;;;;;;4996802;28;20644;-82
2021/01/14 06:11:22;;;;;;;6.85;2.42;;;6.60;99.90;;;;;;4996720;28;20248;-83
2021/01/14 06:13:49;;;;;;;3.15;2.50;;;6.60;99.90;;;;;;4996803;28;20200;-81
2021/01/14 06:16:16;;;;;;;5.10;2.20;;;6.60;99.90;;;;;;4996657;28;20592;-80
2021/01/14 06:18:57;;;;;;;3.92;1.90;;;6.40;99.90;;;;;;4996505;28;20204;-82
2021/01/14 06:21:42;;;;;;;3.40;2.28;;;6.40;99.90;;;;;;4996719;28;20201;-83
2021/01/14 06:24:18;;;;;;;5.88;1.90;;;6.40;99.90;;;;;;4996570;28;20255;-82
2021/01/14 06:26:44;;;;;;;7.15;2.45;;;6.40;99.90;;;;;;4996199;28;20201;-82
2021/01/14 06:29:16;;;;;;;3.40;1.98;;;6.30;99.90;;;;;;4995804;28;20197;-82
2021/01/14 06:31:43;;;;;;;9.65;3.00;;;6.30;99.90;;;;;;4996507;28;20201;-82
2021/01/14 06:34:10;;;;;;;6.28;2.50;;;6.30;99.90;;;;;;4996478;28;20256;-80
2021/01/14 06:36:40;;;;;;;4.13;2.50;;;6.30;99.90;;;;;;4996286;28;20227;-82
2021/01/14 06:39:12;;;;;;;6.03;2.30;;;6.30;99.90;;;;;;4996195;28;20201;-82
2021/01/14 06:41:41;;;;;;;5.07;2.30;;;6.20;99.90;;;;;;4996338;28;20660;-82
2021/01/14 06:44:08;;;;;;;4.82;2.35;;;6.20;99.90;;;;;;4996286;28;20201;-83
2021/01/14 06:46:37;;;;;;;4.35;2.30;;;6.00;99.90;;;;;;4995898;28;20233;-82
2021/01/14 06:49:08;;;;;;;5.95;2.30;;;6.00;99.90;;;;;;4996050;28;20287;-83
2021/01/14 06:51:53;;;;;;;6.40;2.67;;;5.90;99.90;;;;;;4996064;28;21268;-82
2021/01/14 06:54:21;;;;;;;24.40;8.55;;;5.90;99.90;;;;;;4996057;28;20570;-82
2021/01/14 06:56:48;;;;;;;12.90;2.63;;;6.00;99.90;;;;;;4996038;28;20225;-82
2021/01/14 06:59:18;;;;;;;6.72;2.15;;;5.90;99.90;;;;;;4996166;28;20192;-82
2021/01/14 07:02:06;;;;;;;5.13;2.47;;;5.90;99.90;;;;;;4995943;28;20220;-82
2021/01/14 07:04:44;;;;;;;7.82;2.95;;;6.00;99.90;;;;;;4996026;28;20197;-81
2021/01/14 07:07:30;;;;;;;4.45;3.17;;;5.90;99.90;;;;;;4995969;28;20742;-82
2021/01/14 07:10:04;;;;;;;5.68;2.85;;;6.00;99.90;;;;;;4995721;28;20267;-82
2021/01/14 07:12:33;;;;;;;5.10;2.30;;;6.00;99.90;;;;;;4995680;28;20209;-82
2021/01/14 07:15:05;;;;;;;3.70;2.42;;;6.10;99.90;;;;;;4995717;28;20208;-81
2021/01/14 07:17:33;;;;;;;5.70;2.15;;;6.00;99.90;;;;;;4995335;28;20228;-82
2021/01/14 07:20:01;;;;;;;7.18;3.28;;;5.90;99.90;;;;;;4995610;28;20193;-82
2021/01/14 07:22:30;;;;;;;11.15;2.50;;;5.90;99.90;;;;;;4995585;28;20232;-82
2021/01/14 07:25:01;;;;;;;6.60;2.97;;;5.90;99.90;;;;;;4995635;28;20208;-82
2021/01/14 07:27:28;;;;;;;12.50;3.20;;;5.90;99.90;;;;;;4995066;28;20208;-83
2021/01/14 07:29:57;;;;;;;6.93;3.28;;;5.90;99.90;;;;;;4995361;28;20212;-82
2021/01/14 07:32:50;;;;;;;5.97;2.85;;;5.90;99.90;;;;;;4995414;28;20597;-83
2021/01/14 07:35:35;;;;;;;7.78;2.28;;;5.90;99.90;;;;;;4995455;28;20197;-82
2021/01/14 07:38:02;;;;;;;9.80;2.58;;;5.90;99.90;;;;;;4995210;28;20235;-82
2021/01/14 07:40:29;;;;;;;6.78;2.90;;;5.80;99.90;;;;;;4995002;28;20565;-83
2021/01/14 07:42:57;;;;;;;7.40;2.80;;;5.90;99.90;;;;;;4995164;28;20197;-82
2021/01/14 07:45:24;;;;;;;4.82;2.80;;;6.00;99.90;;;;;;4995022;28;20593;-80
2021/01/14 07:47:51;;;;;;;8.77;4.03;;;6.00;99.90;;;;;;4994764;28;20232;-82
2021/01/14 07:50:19;;;;;;;14.73;5.20;;;6.00;99.90;;;;;;4995106;28;20201;-81
2021/01/14 07:52:46;;;;;;;10.45;5.80;;;6.00;99.90;;;;;;4995150;28;20204;-83
2021/01/14 07:55:24;;;;;;;12.38;6.53;;;6.00;99.90;;;;;;4995327;28;20236;-83
2021/01/14 07:58:01;;;;;;;8.70;6.18;;;6.00;99.90;;;;;;4994860;28;20295;-82
2021/01/14 08:00:29;;;;;;;8.98;4.38;;;6.00;99.90;;;;;;4994787;28;20551;-82
2021/01/14 08:03:09;;;;;;;6.05;4.10;;;6.10;99.90;;;;;;4994593;28;20212;-83
2021/01/14 08:05:39;;;;;;;6.82;3.60;;;6.10;99.90;;;;;;4994692;28;20719;-82
2021/01/14 08:08:28;;;;;;;7.78;3.60;;;6.00;99.90;;;;;;4994440;28;20196;-81
2021/01/14 08:11:09;;;;;;;8.00;2.95;;;6.10;99.90;;;;;;4994429;28;20197;-81
2021/01/14 08:13:59;;;;;;;3.22;2.17;;;6.00;99.90;;;;;;4994380;28;20197;-81
2021/01/14 08:16:31;;;;;;;4.13;2.15;;;6.00;99.90;;;;;;4994297;28;20205;-81
2021/01/14 08:19:12;;;;;;;2.08;1.88;;;5.90;99.90;;;;;;4994263;28;20605;-81
2021/01/14 08:21:38;;;;;;;4.78;2.90;;;5.90;99.90;;;;;;4994388;28;20208;-81
2021/01/14 08:24:05;;;;;;;7.20;2.88;;;6.00;99.90;;;;;;4994378;28;20193;-82
2021/01/14 08:26:51;;;;;;;5.65;2.88;;;6.00;99.90;;;;;;4994115;28;20213;-82
2021/01/14 08:29:31;;;;;;;2.88;2.45;;;5.90;99.90;;;;;;4994220;28;20200;-81
2021/01/14 08:31:57;;;;;;;3.40;2.13;;;5.90;99.90;;;;;;4994133;28;20750;-82
2021/01/14 08:34:25;;;;;;;24.88;4.57;;;5.90;99.90;;;;;;4994575;28;20204;-81
2021/01/14 08:36:54;;;;;;;4.50;2.65;;;5.90;99.90;;;;;;4994417;28;20221;-81
2021/01/14 08:39:23;;;;;;;5.80;2.15;;;5.90;99.90;;;;;;4994263;28;20197;-81
2021/01/14 08:41:50;;;;;;;7.60;3.10;;;6.00;99.90;;;;;;4994192;28;20201;-85
2021/01/14 08:44:18;;;;;;;3.60;2.45;;;6.00;99.90;;;;;;4994215;28;20193;-85
2021/01/14 08:46:48;;;;;;;4.63;2.17;;;6.00;99.90;;;;;;4993995;28;20233;-85
2021/01/14 08:49:16;;;;;;;4.57;2.60;;;6.00;99.90;;;;;;4993977;28;20200;-85
2021/01/14 08:51:43;;;;;;;3.17;2.85;;;6.00;99.90;;;;;;4993671;28;20201;-85
2021/01/14 08:54:10;;;;;;;7.40;2.95;;;6.20;99.90;;;;;;4993970;28;20205;-86
2021/01/14 08:56:39;;;;;;;3.92;2.45;;;6.10;99.90;;;;;;4993894;28;20201;-87
2021/01/14 08:59:13;;;;;;;3.35;2.13;;;6.10;99.90;;;;;;4994264;28;20262;-87
2021/01/14 09:01:39;;;;;;;6.00;2.75;;;6.20;99.90;;;;;;4993952;28;20770;-85
2021/01/14 09:04:07;;;;;;;3.05;2.28;;;6.20;99.90;;;;;;4994091;28;20205;-86
2021/01/14 09:06:37;;;;;;;5.22;3.30;;;6.30;99.90;;;;;;4993920;28;20229;-85
2021/01/14 09:09:05;;;;;;;5.10;3.17;;;6.30;99.90;;;;;;4994068;28;20294;-86
2021/01/14 09:11:33;;;;;;;5.10;3.67;;;6.30;99.90;;;;;;4993978;28;20204;-86
2021/01/14 09:14:07;;;;;;;5.57;2.97;;;6.40;99.90;;;;;;4993728;28;20675;-86
2021/01/14 09:16:35;;;;;;;6.32;2.80;;;6.40;99.90;;;;;;4993835;28;20197;-88
2021/01/14 09:19:10;;;;;;;5.72;3.05;;;6.40;99.90;;;;;;4994061;28;20357;-88
2021/01/14 09:21:37;;;;;;;5.75;3.35;;;6.50;99.90;;;;;;4994646;28;20195;-88
2021/01/14 09:24:08;;;;;;;3.42;2.05;;;6.50;99.90;;;;;;4993757;28;20200;-88
2021/01/14 09:26:38;;;;;;;7.05;3.22;;;6.50;99.90;;;;;;4993867;28;20197;-88
2021/01/14 09:29:06;;;;;;;6.30;2.95;;;6.50;99.90;;;;;;4993760;28;20279;-85
2021/01/14 09:31:33;;;;;;;5.75;2.75;;;6.60;99.90;;;;;;4993812;28;20220;-86
2021/01/14 09:34:01;;;;;;;9.98;3.10;;;6.60;99.90;;;;;;4993921;28;20205;-85
2021/01/14 09:36:28;;;;;;;6.20;3.10;;;6.60;99.90;;;;;;4994443;28;20197;-86
2021/01/14 09:38:55;;;;;;;4.53;2.90;;;6.50;99.90;;;;;;4993508;28;20661;-81
2021/01/14 09:41:27;;;;;;;11.18;3.00;;;6.50;99.90;;;;;;4993293;28;20657;-85
2021/01/14 09:43:58;;;;;;;3.17;2.60;;;6.50;99.90;;;;;;4993519;28;20236;-82
2021/01/14 09:46:28;;;;;;;4.65;3.35;;;6.70;99.90;;;;;;4992343;28;20233;-82
2021/01/14 09:49:02;;;;;;;8.15;3.40;;;6.90;99.90;;;;;;4993410;28;20197;-81
2021/01/14 09:51:29;;;;;;;8.45;3.75;;;7.00;99.90;;;;;;4993680;28;20680;-81
2021/01/14 09:53:55;;;;;;;9.02;4.00;;;7.20;99.90;;;;;;4993513;28;20197;-82
2021/01/14 09:56:28;;;;;;;3.85;2.83;;;7.40;99.90;;;;;;4993412;28;20295;-82
2021/01/14 09:58:57;;;;;;;4.90;3.03;;;7.50;99.90;;;;;;4993556;28;20233;-82
2021/01/14 10:01:28;;;;;;;3.47;2.70;;;7.50;99.90;;;;;;4993640;28;20224;-82
2021/01/14 10:04:05;;;;;;;3.72;2.83;;;7.50;99.90;;;;;;4996896;28;20197;-82
2021/01/14 10:06:35;;;;;;;3.83;2.67;;;7.70;99.90;;;;;;4996607;28;20210;-82
2021/01/14 10:09:02;;;;;;;3.10;2.80;;;7.70;99.90;;;;;;4996828;28;20197;-83
2021/01/14 10:11:29;;;;;;;4.95;2.65;;;7.90;99.90;;;;;;4996633;28;20209;-81
2021/01/14 10:13:55;;;;;;;3.85;2.53;;;8.00;99.90;;;;;;4987220;28;20198;-81
2021/01/14 10:16:22;;;;;;;6.03;3.50;;;7.90;99.90;;;;;;4982842;28;20197;-81
2021/01/14 10:18:49;;;;;;;6.22;3.83;;;7.90;99.90;;;;;;4986521;28;20224;-81
2021/01/14 10:21:24;;;;;;;3.58;2.88;;;7.90;99.90;;;;;;4984454;28;20194;-81
2021/01/14 10:23:54;;;;;;;5.43;2.42;;;7.90;99.90;;;;;;4990354;28;20193;-81
2021/01/14 10:26:27;;;;;;;4.07;2.90;;;7.90;99.90;;;;;;4996288;28;20205;-82
2021/01/14 10:28:54;;;;;;;4.10;2.20;;;7.90;99.90;;;;;;4996557;28;20281;-82
2021/01/14 10:31:34;;;;;;;3.17;2.63;;;8.00;99.90;;;;;;4996237;28;20208;-82
2021/01/14 10:34:00;;;;;;;2.35;2.00;;;8.00;99.90;;;;;;4996092;28;20200;-82
2021/01/14 10:36:49;;;;;;;4.63;2.80;;;8.10;99.90;;;;;;4996046;28;20209;-82
2021/01/14 10:39:17;;;;;;;3.88;2.38;;;8.10;99.90;;;;;;4977826;28;20209;-82
2021/01/14 10:41:44;;;;;;;2.60;2.40;;;8.10;99.90;;;;;;4976693;28;20612;-82
2021/01/14 10:44:11;;;;;;;4.25;2.28;;;8.10;99.90;;;;;;4976593;28;20205;-81
2021/01/14 10:46:37;;;;;;;7.40;3.08;;;8.00;99.90;;;;;;4976350;28;20230;-82
2021/01/14 10:49:11;;;;;;;3.15;2.53;;;8.00;99.90;;;;;;4976517;28;20256;-82
2021/01/14 10:51:39;;;;;;;7.40;3.20;;;8.00;99.90;;;;;;4976458;28;20249;-82
2021/01/14 10:54:06;;;;;;;6.85;2.97;;;8.00;99.90;;;;;;4976384;28;20193;-82
2021/01/14 10:56:33;;;;;;;4.20;2.85;;;8.10;99.90;;;;;;4976659;28;20197;-82
2021/01/14 10:59:01;;;;;;;4.03;2.60;;;8.10;99.90;;;;;;4976164;28;20233;-81
2021/01/14 11:01:28;;;;;;;3.67;3.35;;;8.20;99.90;;;;;;4976331;28;20741;-82
2021/01/14 11:04:05;;;;;;;5.70;3.45;;;8.20;99.90;;;;;;4976244;28;20197;-81
2021/01/14 11:06:33;;;;;;;6.72;3.15;;;8.30;99.90;;;;;;4975988;28;20661;-82
2021/01/14 11:09:01;;;;;;;6.40;3.00;;;8.30;99.90;;;;;;4975904;28;20558;-81
2021/01/14 11:11:29;;;;;;;10.43;3.30;;;8.30;99.90;;;;;;4975810;28;20197;-81
2021/01/14 11:13:55;;;;;;;5.20;2.63;;;8.30;99.90;;;;;;4988381;28;20189;-82
2021/01/14 11:16:23;;;;;;;5.75;2.83;;;8.20;99.90;;;;;;4995106;28;20201;-82
2021/01/14 11:18:50;;;;;;;7.93;2.88;;;8.20;99.90;;;;;;4995330;28;20263;-82
2021/01/14 11:21:18;;;;;;;4.38;3.30;;;8.20;99.90;;;;;;4995338;28;20208;-82
2021/01/14 11:23:45;;;;;;;3.05;2.20;;;8.30;99.90;;;;;;4995151;28;20201;-81
2021/01/14 11:26:18;;;;;;;5.85;2.95;;;8.40;99.90;;;;;;4988643;28;20236;-81
2021/01/14 11:28:46;;;;;;;4.35;2.85;;;8.40;99.90;;;;;;4984025;28;20584;-82
2021/01/14 11:31:13;;;;;;;5.78;3.13;;;8.50;99.90;;;;;;4987389;28;20216;-82
2021/01/14 11:33:39;;;;;;;2.97;2.60;;;8.40;99.90;;;;;;4995174;28;20251;-82
2021/01/14 11:36:06;;;;;;;5.07;3.08;;;8.50;99.90;;;;;;4995214;28;20201;-82
2021/01/14 11:38:33;;;;;;;2.90;2.60;;;8.50;99.90;;;;;;4994978;28;20252;-83
2021/01/14 11:40:59;;;;;;;5.57;2.88;;;8.50;99.90;;;;;;4995155;28;20216;-82
2021/01/14 11:43:26;;;;;;;7.35;3.20;;;8.50;99.90;;;;;;4995238;28;20201;-82
2021/01/14 11:45:53;;;;;;;6.35;3.50;;;8.40;99.90;;;;;;4994696;28;20320;-82
2021/01/14 11:48:20;;;;;;;4.25;3.17;;;8.50;99.90;;;;;;4994962;28;20248;-82
2021/01/14 11:50:46;;;;;;;5.13;3.50;;;8.40;99.90;;;;;;4994910;28;20197;-82
2021/01/14 11:53:12;;;;;;;10.63;5.55;;;8.20;99.90;;;;;;4994857;28;20193;-82
2021/01/14 11:55:39;;;;;;;3.53;3.13;;;8.20;99.90;;;;;;4994842;28;20208;-82
2021/01/14 11:58:05;;;;;;;3.20;2.90;;;8.20;99.90;;;;;;4994532;28;20299;-81
2021/01/14 12:00:31;;;;;;;4.55;3.45;;;8.30;99.90;;;;;;4994750;28;20192;-81
2021/01/14 12:03:01;;;;;;;6.65;3.40;;;8.50;99.90;;;;;;4988029;28;20213;-81
2021/01/14 12:05:27;;;;;;;6.57;3.22;;;8.60;99.90;;;;;;4979688;28;21061;-81
2021/01/14 12:07:54;;;;;;;6.05;3.50;;;8.50;99.90;;;;;;4983387;28;20189;-83
2021/01/14 12:10:20;;;;;;;7.80;4.00;;;8.60;99.90;;;;;;4974730;28;20206;-82
2021/01/14 12:12:46;;;;;;;4.90;2.80;;;8.70;99.90;;;;;;4976664;28;20194;-85
2021/01/14 12:15:13;;;;;;;5.63;3.63;;;8.70;99.90;;;;;;4994190;28;20193;-82
2021/01/14 12:17:40;;;;;;;7.53;3.97;;;8.70;99.90;;;;;;4987170;28;20224;-81
2021/01/14 12:20:07;;;;;;;4.10;2.97;;;8.70;99.90;;;;;;4986474;28;20190;-81
2021/01/14 12:22:38;;;;;;;3.80;3.50;;;8.60;99.90;;;;;;4982768;28;20204;-80
2021/01/14 12:25:09;;;;;;;5.63;3.38;;;8.60;99.90;;;;;;4982938;28;20189;-80
2021/01/14 12:27:35;;;;;;;6.55;3.90;;;8.60;99.90;;;;;;4982627;28;20197;-80
2021/01/14 12:30:02;;;;;;;5.15;4.50;;;8.60;99.90;;;;;;4982069;28;20205;-80
2021/01/14 12:32:28;;;;;;;4.78;3.17;;;8.70;99.90;;;;;;4987455;28;20227;-79
2021/01/14 12:34:55;;;;;;;4.82;3.60;;;8.50;99.90;;;;;;4993233;28;20205;-80
2021/01/14 12:37:22;;;;;;;3.30;2.70;;;8.50;99.90;;;;;;4993294;28;20224;-79
2021/01/14 12:39:49;;;;;;;5.95;4.00;;;8.60;99.90;;;;;;4993265;28;20204;-79
2021/01/14 12:42:15;;;;;;;5.40;3.35;;;8.60;99.90;;;;;;4993167;28;20251;-80
2021/01/14 12:44:41;;;;;;;3.58;3.28;;;8.70;99.90;;;;;;4992613;28;20200;-81
2021/01/14 12:47:09;;;;;;;4.80;3.47;;;8.70;99.90;;;;;;4992713;28;20652;-80
2021/01/14 12:49:35;;;;;;;7.28;3.63;;;8.80;99.90;;;;;;4992718;28;20208;-80
2021/01/14 12:52:01;;;;;;;3.70;3.08;;;8.70;99.90;;;;;;4992812;28;20193;-80
2021/01/14 12:54:28;;;;;;;3.83;3.30;;;8.70;99.90;;;;;;4992866;28;20293;-81
2021/01/14 12:56:55;;;;;;;3.28;2.97;;;8.70;99.90;;;;;;4992339;28;20707;-81
2021/01/14 12:59:21;;;;;;;2.70;2.50;;;8.70;99.90;;;;;;4992943;28;20224;-81
2021/01/14 13:01:47;;;;;;;13.75;3.70;;;8.70;99.90;;;;;;4993104;28;20592;-80
2021/01/14 13:04:16;;;;;;;3.08;2.75;;;8.80;99.90;;;;;;4993426;28;20222;-80